Terminal Aerodrome Forecast
Issued by NWS Mt. Holly, NJ

Home | Current Version | Previous Version | Text Only | Print | Product List | Glossary On
Versions: 1 2 3 4 5 6 7 8 9 10 11 12 13 14 15 16 17 18
308
FTUS41 KPHI 131615 CCA
TAFACY
TAF COR
KACY 131615Z 1316/1412 30024G35KT P6SM BKN060
      TEMPO 1317/1319 3SM -SHSN BKN040
     FM140000 31016G25KT P6SM SCT050
     FM141000 32012KT P6SM SKC=

USA.gov is the U.S. government's official web portal to all federal, state and local government web resources and services.